Time;durP1;ratioP1;P1;durP2;ratioP2;P2;SDS_P1;SDS_P2;PMS_P1;PMS_P2;Temp;Humidity;BMP_temperature;BMP_pressure;BME280_temperature;BME280_humidity;BME280_pressure;Samples;Min_cycle;Max_cycle;Signal;HPM_P1;HPM_P2
2023/07/11 00:00:38;;;;;;;6.13;5.40;;;;;;;17.78;59.35;95214.88;5093784;28;20055;-76
2023/07/11 00:03:03;;;;;;;5.88;5.32;;;;;;;17.92;59.20;95212.59;5081395;27;20031;-76
2023/07/11 00:05:29;;;;;;;6.63;5.50;;;;;;;17.93;59.63;95219.47;5076951;28;20039;-76
2023/07/11 00:07:54;;;;;;;5.85;5.20;;;;;;;17.76;60.30;95231.75;5076796;28;20032;-76
2023/07/11 00:10:19;;;;;;;6.60;4.88;;;;;;;17.69;60.87;95225.47;5093502;28;20021;-76
2023/07/11 00:12:45;;;;;;;5.68;5.07;;;;;;;17.66;61.38;95237.13;5103237;27;20092;-76
2023/07/11 00:15:11;;;;;;;7.00;5.03;;;;;;;17.67;61.35;95233.53;5098441;27;20110;-76
2023/07/11 00:17:37;;;;;;;7.00;4.85;;;;;;;17.66;61.26;95237.13;5113786;28;20085;-76
2023/07/11 00:20:04;;;;;;;5.63;5.07;;;;;;;17.46;61.71;95238.38;5097878;27;20032;-76
2023/07/11 00:22:30;;;;;;;8.82;5.10;;;;;;;17.45;61.83;95234.94;5114178;28;20055;-76
2023/07/11 00:24:56;;;;;;;5.53;5.00;;;;;;;17.33;62.00;95230.97;5113821;28;20047;-76
2023/07/11 00:27:23;;;;;;;5.70;5.10;;;;;;;17.31;61.37;95233.75;5114855;27;20051;-76
2023/07/11 00:29:48;;;;;;;5.50;5.00;;;;;;;17.26;61.74;95230.75;5132417;27;20031;-76
2023/07/11 00:32:14;;;;;;;5.57;5.00;;;;;;;17.33;60.75;95226.53;5100855;28;20035;-76
2023/07/11 00:34:39;;;;;;;5.30;4.57;;;;;;;17.27;60.58;95232.38;5096104;28;20054;-76
2023/07/11 00:37:05;;;;;;;5.28;4.78;;;;;;;17.12;61.01;95226.09;5126377;27;20030;-76
2023/07/11 00:39:32;;;;;;;5.82;4.90;;;;;;;17.08;60.66;95207.22;5135245;27;20024;-76
2023/07/11 00:41:57;;;;;;;5.25;4.75;;;;;;;17.21;61.04;95217.28;5095497;28;20112;-76
2023/07/11 00:44:23;;;;;;;5.70;5.10;;;;;;;17.27;61.05;95228.94;5115790;27;20472;-76
2023/07/11 00:46:49;;;;;;;7.50;5.25;;;;;;;17.18;60.96;95209.72;5113035;28;20405;-76
2023/07/11 00:49:16;;;;;;;5.90;5.07;;;;;;;17.12;60.81;95205.09;5107323;28;20024;-76
2023/07/11 00:51:59;;;;;;;6.28;5.00;;;;;;;17.25;60.83;95218.63;5113818;27;20019;-76
2023/07/11 00:54:27;;;;;;;5.72;4.70;;;;;;;17.25;60.97;95217.81;5132216;27;20080;-76
2023/07/11 00:56:53;;;;;;;9.82;4.90;;;;;;;17.15;61.05;95196.91;5116803;27;20047;-77
2023/07/11 00:59:18;;;;;;;6.85;4.43;;;;;;;17.18;60.98;95199.22;5085007;27;20398;-76
2023/07/11 01:01:46;;;;;;;6.85;4.68;;;;;;;17.20;60.90;95210.41;5116300;27;20023;-77
2023/07/11 01:04:14;;;;;;;6.10;5.13;;;;;;;17.19;60.80;95193.00;5119717;27;20043;-76
2023/07/11 01:06:40;;;;;;;5.47;4.97;;;;;;;17.16;61.04;95193.31;5121283;27;20027;-76
2023/07/11 01:09:05;;;;;;;8.20;5.10;;;;;;;17.10;60.94;95199.19;5094806;28;20055;-76
2023/07/11 01:11:31;;;;;;;5.30;4.80;;;;;;;17.13;60.94;95204.13;5114657;27;20031;-76
2023/07/11 01:13:57;;;;;;;7.00;5.40;;;;;;;17.06;61.17;95206.56;5114087;27;20031;-76
2023/07/11 01:16:22;;;;;;;10.60;5.15;;;;;;;16.95;61.46;95207.66;5106191;28;20378;-76
2023/07/11 01:18:48;;;;;;;6.07;4.78;;;;;;;17.02;61.49;95205.25;5075284;28;20024;-76
2023/07/11 01:21:21;;;;;;;5.57;5.07;;;;;;;16.89;62.08;95203.03;5099182;27;20047;-75
2023/07/11 01:23:46;;;;;;;5.95;5.28;;;;;;;16.93;61.95;95209.59;5132605;27;20416;-76
2023/07/11 01:26:12;;;;;;;6.95;5.07;;;;;;;16.81;61.79;95203.00;5091570;28;20111;-76
2023/07/11 01:28:39;;;;;;;6.93;5.10;;;;;;;17.01;61.50;95197.50;5058393;28;20025;-76
2023/07/11 01:31:04;;;;;;;6.53;5.30;;;;;;;17.05;61.34;95202.31;5091921;28;20032;-76
2023/07/11 01:33:30;;;;;;;5.60;5.07;;;;;;;16.92;61.73;95202.72;5108566;27;20077;-76
2023/07/11 01:35:56;;;;;;;5.60;4.93;;;;;;;16.82;62.04;95201.19;5113716;27;20023;-76
2023/07/11 01:38:22;;;;;;;5.53;4.95;;;;;;;16.79;62.14;95194.44;5092947;28;20043;-76
2023/07/11 01:40:47;;;;;;;6.38;5.25;;;;;;;16.88;62.56;95222.41;5091911;28;20034;-77
2023/07/11 01:43:14;;;;;;;7.55;5.85;;;;;;;16.67;64.60;95219.28;5076979;27;20163;-76
2023/07/11 01:45:40;;;;;;;6.18;5.57;;;;;;;16.54;65.00;95212.63;5091873;28;20028;-76
2023/07/11 01:48:06;;;;;;;7.22;6.13;;;;;;;16.47;64.98;95216.84;5108620;27;20031;-76
2023/07/11 01:50:31;;;;;;;6.03;5.43;;;;;;;16.53;64.93;95205.75;5123893;27;20030;-76
2023/07/11 01:52:57;;;;;;;7.38;5.53;;;;;;;16.62;65.07;95211.03;5114563;27;20043;-76
2023/07/11 01:55:22;;;;;;;9.18;5.65;;;;;;;16.46;65.08;95201.25;5111981;28;20027;-76
2023/07/11 01:57:47;;;;;;;6.10;5.28;;;;;;;16.50;64.24;95203.44;5092385;28;20046;-76
2023/07/11 02:00:13;;;;;;;5.60;5.10;;;;;;;16.49;63.66;95178.19;5092677;28;20031;-76
2023/07/11 02:02:39;;;;;;;6.95;5.43;;;;;;;16.51;63.50;95189.34;5104719;28;20047;-76
2023/07/11 02:05:05;;;;;;;6.35;5.03;;;;;;;16.35;63.76;95163.00;5124175;27;20080;-76
2023/07/11 02:07:30;;;;;;;6.90;5.20;;;;;;;16.47;63.46;95167.03;5123524;27;20061;-76
2023/07/11 02:09:56;;;;;;;5.85;5.15;;;;;;;16.54;63.48;95175.09;5105382;27;20425;-76
2023/07/11 02:12:21;;;;;;;8.32;5.63;;;;;;;16.28;63.57;95147.09;5108388;28;20058;-76
2023/07/11 02:14:47;;;;;;;5.70;5.13;;;;;;;16.54;63.30;95177.72;5125756;27;20107;-76
2023/07/11 02:17:14;;;;;;;6.75;5.70;;;;;;;16.50;63.19;95174.59;5108527;27;20055;-76
2023/07/11 02:19:40;;;;;;;6.13;5.22;;;;;;;16.53;62.90;95194.44;5089867;28;20081;-76
2023/07/11 02:22:07;;;;;;;6.95;5.40;;;;;;;16.45;63.53;95189.97;5116720;27;20035;-76
2023/07/11 02:24:33;;;;;;;6.18;5.43;;;;;;;16.31;64.37;95208.88;5113428;27;20027;-76
2023/07/11 02:26:58;;;;;;;7.15;5.85;;;;;;;16.29;64.91;95211.63;5122758;27;20059;-76
2023/07/11 02:29:24;;;;;;;8.40;6.10;;;;;;;16.42;64.56;95211.25;5092335;28;20024;-76
2023/07/11 02:31:49;;;;;;;9.00;5.43;;;;;;;16.37;64.52;95208.25;5097557;28;20059;-76
2023/07/11 02:34:15;;;;;;;7.05;5.53;;;;;;;16.37;64.51;95208.25;5091674;27;20035;-76
2023/07/11 02:36:40;;;;;;;6.32;5.55;;;;;;;16.38;64.22;95209.06;5113619;27;20489;-76
2023/07/11 02:39:06;;;;;;;6.15;5.55;;;;;;;16.29;65.12;95205.56;5092055;27;20038;-76
2023/07/11 02:41:31;;;;;;;6.47;5.88;;;;;;;16.25;65.15;95204.25;5127671;27;20050;-75
2023/07/11 02:43:57;;;;;;;6.65;5.93;;;;;;;16.36;64.80;95203.19;5110341;27;20035;-76
2023/07/11 02:46:22;;;;;;;6.47;5.65;;;;;;;16.33;65.35;95206.94;5110857;27;20031;-76
2023/07/11 02:48:48;;;;;;;7.82;6.20;;;;;;;16.02;67.34;95199.47;5091407;28;20043;-76
2023/07/11 02:51:13;;;;;;;7.97;6.63;;;;;;;16.05;66.70;95199.16;5093949;27;20027;-76
2023/07/11 02:53:39;;;;;;;7.05;6.35;;;;;;;16.15;66.64;95185.16;5089308;27;20043;-76
2023/07/11 02:56:04;;;;;;;7.40;6.55;;;;;;;15.89;67.88;95188.56;5090775;28;20038;-76
2023/07/11 02:58:30;;;;;;;7.47;6.78;;;;;;;15.86;68.03;95191.47;5090378;28;20024;-76
2023/07/11 03:00:57;;;;;;;7.47;6.78;;;;;;;15.97;67.29;95195.66;5073567;28;20474;-76
2023/07/11 03:03:22;;;;;;;6.70;6.00;;;;;;;15.85;67.51;95190.66;5090569;28;20056;-76
2023/07/11 03:05:49;;;;;;;6.75;6.13;;;;;;;15.62;67.54;95182.38;5089779;28;20024;-76
2023/07/11 03:08:15;;;;;;;9.10;6.20;;;;;;;15.80;67.35;95198.13;5127190;27;20031;-76
2023/07/11 03:10:40;;;;;;;7.63;6.85;;;;;;;15.56;68.43;95188.19;5130894;27;20034;-75
2023/07/11 03:13:06;;;;;;;8.50;6.85;;;;;;;15.79;67.68;95193.03;5107458;28;20027;-76
2023/07/11 03:15:35;;;;;;;7.55;6.75;;;;;;;15.81;67.81;95196.34;5110469;28;20102;-76
2023/07/11 03:18:01;;;;;;;7.63;6.82;;;;;;;15.78;68.29;95194.84;5097941;28;20035;-76
2023/07/11 03:20:26;;;;;;;7.85;6.93;;;;;;;15.77;68.12;95192.38;5113867;28;20027;-76
2023/07/11 03:22:52;;;;;;;9.32;6.30;;;;;;;15.93;68.20;95199.53;5112108;28;20549;-76
2023/07/11 03:25:17;;;;;;;7.43;6.63;;;;;;;15.95;68.04;95198.41;5132169;27;20076;-76
2023/07/11 03:27:42;;;;;;;7.65;6.70;;;;;;;15.84;68.27;95196.03;5100313;28;20047;-76
2023/07/11 03:30:08;;;;;;;7.88;6.53;;;;;;;16.01;67.98;95221.41;5073129;28;20032;-76
2023/07/11 03:32:34;;;;;;;9.07;6.97;;;;;;;15.55;69.53;95223.22;5089935;28;20020;-75
2023/07/11 03:34:59;;;;;;;8.25;6.57;;;;;;;15.72;68.80;95224.25;5089935;28;20043;-76
2023/07/11 03:37:25;;;;;;;7.13;6.05;;;;;;;15.77;68.57;95218.56;5085190;28;20054;-76
2023/07/11 03:39:50;;;;;;;7.25;6.38;;;;;;;15.98;68.87;95234.78;5111917;28;20039;-76
2023/07/11 03:42:15;;;;;;;7.63;6.82;;;;;;;16.04;68.60;95226.31;5130496;27;20027;-76
2023/07/11 03:44:44;;;;;;;8.77;7.22;;;;;;;16.21;68.46;95218.59;5113776;28;20100;-76
2023/07/11 03:47:10;;;;;;;7.38;6.47;;;;;;;16.07;68.52;95218.19;5113970;27;20034;-76
2023/07/11 03:49:35;;;;;;;7.78;6.10;;;;;;;16.12;68.77;95214.28;5110300;28;20039;-76
2023/07/11 03:52:01;;;;;;;7.18;6.47;;;;;;;16.08;68.59;95179.72;5109717;28;20031;-76
2023/07/11 03:54:26;;;;;;;7.88;6.25;;;;;;;16.28;68.91;95214.41;5093445;28;20032;-76
2023/07/11 03:56:52;;;;;;;6.72;6.03;;;;;;;16.12;67.49;95202.00;5109071;28;20034;-75
2023/07/11 03:59:17;;;;;;;9.52;6.57;;;;;;;16.16;67.36;95211.22;5092947;28;20032;-76
2023/07/11 04:01:43;;;;;;;8.20;7.28;;;;;;;16.04;68.03;95202.75;5110094;28;20024;-76
2023/07/11 04:04:08;;;;;;;8.23;7.10;;;;;;;16.20;68.47;95223.03;5071536;28;20039;-76
2023/07/11 04:06:34;;;;;;;8.80;7.32;;;;;;;16.38;67.73;95217.78;5089146;28;20055;-75
2023/07/11 04:08:59;;;;;;;9.05;6.95;;;;;;;16.68;67.34;95216.47;5086687;28;20032;-77
2023/07/11 04:11:25;;;;;;;9.80;7.20;;;;;;;16.69;66.65;95199.78;5080939;28;20510;-77
2023/07/11 04:13:50;;;;;;;9.95;6.78;;;;;;;17.28;65.95;95192.06;5101439;28;20043;-76
2023/07/11 04:16:15;;;;;;;8.30;6.45;;;;;;;18.00;62.69;95181.06;5105557;28;20039;-75
2023/07/11 04:18:41;;;;;;;10.75;6.30;;;;;;;18.49;60.27;95191.53;5103151;28;20519;-77
2023/07/11 04:21:06;;;;;;;8.05;6.25;;;;;;;19.05;58.73;95202.94;5085364;28;20024;-77
2023/07/11 04:23:32;;;;;;;7.53;6.60;;;;;;;19.64;57.36;95211.28;5105238;28;20054;-77
2023/07/11 04:25:57;;;;;;;7.53;6.65;;;;;;;19.96;56.33;95222.63;5100959;28;20089;-77
2023/07/11 04:28:23;;;;;;;8.65;6.53;;;;;;;20.42;54.93;95222.63;5100352;28;20052;-76
2023/07/11 04:30:48;;;;;;;7.13;6.32;;;;;;;20.70;54.80;95227.38;5084418;28;20028;-78
2023/07/11 04:33:13;;;;;;;8.63;6.47;;;;;;;21.17;53.13;95205.06;5119329;27;20047;-77
2023/07/11 04:35:40;;;;;;;7.82;6.80;;;;;;;21.34;52.59;95227.66;5105952;28;20077;-76
2023/07/11 04:38:05;;;;;;;7.03;6.32;;;;;;;21.73;51.89;95205.41;5086565;28;20469;-76
2023/07/11 04:40:31;;;;;;;7.00;6.30;;;;;;;21.83;50.69;95216.47;5104423;28;20026;-76
2023/07/11 04:42:57;;;;;;;7.28;6.40;;;;;;;21.92;50.38;95230.41;5090173;28;20123;-76
2023/07/11 04:45:23;;;;;;;7.82;6.00;;;;;;;22.32;50.25;95224.75;5076826;28;21339;-76
2023/07/11 04:47:48;;;;;;;9.48;6.60;;;;;;;22.39;49.93;95230.91;5111896;27;20105;-76
2023/07/11 04:50:13;;;;;;;14.35;6.80;;;;;;;22.19;49.47;95231.53;5092412;28;20027;-75
2023/07/11 04:52:39;;;;;;;7.35;6.47;;;;;;;21.91;50.33;95234.06;5108615;28;20231;-76
2023/07/11 04:55:05;;;;;;;7.82;6.50;;;;;;;21.91;50.34;95220.03;5108646;28;20034;-76
2023/07/11 04:57:30;;;;;;;8.52;6.68;;;;;;;21.90;50.59;95231.59;5090610;28;20027;-76
2023/07/11 04:59:56;;;;;;;8.40;6.80;;;;;;;21.64;51.23;95235.56;5108897;28;20035;-76
2023/07/11 05:02:24;;;;;;;8.65;6.90;;;;;;;21.55;51.69;95239.34;5110513;27;20476;-76
2023/07/11 05:04:49;;;;;;;11.18;7.28;;;;;;;21.76;51.58;95225.38;5109005;27;20035;-74
2023/07/11 05:07:15;;;;;;;10.02;7.22;;;;;;;21.85;51.07;95230.34;5109802;28;20027;-76
2023/07/11 05:09:40;;;;;;;9.85;7.05;;;;;;;21.92;51.42;95226.94;5108026;27;20036;-76
2023/07/11 05:12:06;;;;;;;10.50;7.30;;;;;;;21.63;51.71;95233.94;5073851;28;20020;-76
2023/07/11 05:14:32;;;;;;;11.70;7.05;;;;;;;21.78;51.33;95232.06;5076611;27;20148;-76
2023/07/11 05:16:57;;;;;;;11.23;7.00;;;;;;;21.74;51.22;95238.75;5092236;28;20493;-76
2023/07/11 05:19:22;;;;;;;12.10;7.63;;;;;;;21.67;51.27;95229.91;5111833;27;20047;-75
2023/07/11 05:21:48;;;;;;;7.90;6.68;;;;;;;22.01;51.31;95236.41;5108595;28;20136;-74
2023/07/11 05:24:13;;;;;;;11.77;7.70;;;;;;;22.01;51.18;95220.56;5107894;28;20421;-73
2023/07/11 05:26:39;;;;;;;10.13;6.45;;;;;;;21.85;51.20;95234.81;5108232;28;20052;-71
2023/07/11 05:29:04;;;;;;;11.10;6.45;;;;;;;21.58;51.90;95223.91;5096968;28;20027;-76
2023/07/11 05:31:30;;;;;;;8.93;6.22;;;;;;;21.69;52.13;95235.84;5095249;28;20396;-76
2023/07/11 05:33:55;;;;;;;7.30;6.43;;;;;;;21.91;52.05;95238.53;5095217;28;20084;-75
2023/07/11 05:38:50;;;;;;;12.00;6.72;;;;;;;21.74;52.49;95241.41;5112271;28;20106;-76
2023/07/11 05:41:16;;;;;;;12.30;7.00;;;;;;;21.47;52.61;95245.53;5078794;28;20470;-76
2023/07/11 05:43:41;;;;;;;9.75;6.90;;;;;;;21.81;51.90;95238.81;5096396;27;20481;-75
2023/07/11 05:46:07;;;;;;;8.88;6.80;;;;;;;21.62;51.71;95237.59;5111887;27;20047;-74
2023/07/11 05:48:32;;;;;;;11.65;6.88;;;;;;;21.57;51.90;95230.22;5117743;27;20023;-73
2023/07/11 05:51:12;;;;;;;9.15;6.97;;;;;;;21.71;52.75;95240.97;5101045;27;20028;-72
2023/07/11 05:53:37;;;;;;;10.00;7.35;;;;;;;21.67;52.13;95237.84;5107908;27;20035;-75
2023/07/11 05:56:03;;;;;;;9.18;6.68;;;;;;;21.88;51.63;95229.16;5091392;28;20070;-76
2023/07/11 05:58:29;;;;;;;8.93;6.57;;;;;;;22.27;50.97;95235.88;5089491;28;20036;-77
2023/07/11 06:00:55;;;;;;;10.57;7.53;;;;;;;22.21;51.27;95240.09;5090407;28;20028;-75
2023/07/11 06:03:21;;;;;;;10.40;6.53;;;;;;;22.21;52.04;95241.94;5092886;28;20125;-76
2023/07/11 06:05:46;;;;;;;7.78;6.57;;;;;;;22.59;51.16;95234.53;5087366;27;20421;-77
2023/07/11 06:08:12;;;;;;;12.25;7.70;;;;;;;22.26;51.88;95213.91;5097147;28;20028;-76
2023/07/11 06:10:38;;;;;;;12.85;8.50;;;;;;;22.28;52.03;95235.69;5112070;28;20489;-76
2023/07/11 06:13:03;;;;;;;9.25;7.15;;;;;;;22.39;51.67;95230.91;5076996;28;20050;-76
2023/07/11 06:15:29;;;;;;;10.00;6.78;;;;;;;22.54;52.56;95223.72;5094502;28;20442;-76
2023/07/11 06:17:54;;;;;;;9.93;7.10;;;;;;;22.83;51.75;95235.13;5111296;28;20426;-76
2023/07/11 06:20:19;;;;;;;10.82;7.35;;;;;;;22.99;51.46;95232.22;5093225;28;20031;-76
2023/07/11 06:22:45;;;;;;;8.68;6.95;;;;;;;22.85;52.09;95235.75;5109091;28;20020;-76
2023/07/11 06:25:10;;;;;;;9.93;7.13;;;;;;;22.86;52.28;95232.91;5075667;28;20110;-76
2023/07/11 06:27:36;;;;;;;11.68;7.50;;;;;;;22.82;52.02;95236.16;5110070;28;20347;-76
2023/07/11 06:30:01;;;;;;;12.65;7.82;;;;;;;22.93;51.71;95225.84;5109598;28;20031;-76
2023/07/11 06:32:27;;;;;;;10.32;7.68;;;;;;;22.72;52.45;95229.34;5110011;28;20100;-76
2023/07/11 06:34:52;;;;;;;8.30;7.47;;;;;;;22.71;52.51;95233.00;5110733;28;20028;-76
2023/07/11 06:37:18;;;;;;;7.97;6.75;;;;;;;22.84;51.90;95231.47;5112960;28;20039;-76
2023/07/11 06:39:45;;;;;;;7.90;7.10;;;;;;;22.91;51.39;95204.00;5111100;28;20026;-76
2023/07/11 06:42:10;;;;;;;19.27;7.55;;;;;;;23.26;49.76;95219.94;5094236;28;20140;-76
2023/07/11 06:44:36;;;;;;;9.15;7.10;;;;;;;23.23;50.40;95209.72;5112248;28;20024;-76
2023/07/11 06:47:01;;;;;;;12.13;7.20;;;;;;;23.36;50.88;95227.53;5112046;28;20027;-76
2023/07/11 06:49:27;;;;;;;10.77;7.10;;;;;;;23.47;49.91;95221.69;5094145;28;20088;-76
2023/07/11 06:51:52;;;;;;;8.70;6.88;;;;;;;23.64;50.02;95219.50;5111004;28;20110;-76
2023/07/11 06:54:18;;;;;;;8.02;6.78;;;;;;;23.76;50.54;95217.13;5093882;28;20032;-76
2023/07/11 06:56:43;;;;;;;11.48;7.40;;;;;;;23.71;50.24;95207.13;5112423;28;20510;-76
2023/07/11 06:59:09;;;;;;;7.72;6.93;;;;;;;23.75;50.67;95223.47;5094063;28;20043;-76
2023/07/11 07:01:34;;;;;;;9.77;7.03;;;;;;;23.73;49.73;95212.22;5110957;28;20028;-76
2023/07/11 07:04:00;;;;;;;10.88;6.80;;;;;;;23.72;50.13;95218.56;5093324;28;20501;-76
2023/07/11 07:06:26;;;;;;;10.10;7.75;;;;;;;23.79;50.39;95222.88;5110879;28;20020;-76
2023/07/11 07:08:51;;;;;;;10.63;7.15;;;;;;;23.76;49.95;95211.81;5093514;28;20032;-76
2023/07/11 07:11:17;;;;;;;10.13;6.95;;;;;;;23.91;49.45;95217.81;5110720;28;20500;-76
2023/07/11 07:13:42;;;;;;;7.88;7.10;;;;;;;24.20;48.77;95221.94;5093612;28;20479;-76
2023/07/11 07:16:08;;;;;;;8.20;6.90;;;;;;;24.46;47.76;95223.84;5111657;28;20106;-76
2023/07/11 07:18:34;;;;;;;8.30;6.85;;;;;;;24.47;48.75;95214.84;5110559;28;20110;-76
2023/07/11 07:21:00;;;;;;;8.30;6.85;;;;;;;24.46;46.95;95215.88;5111351;28;20023;-75
2023/07/11 07:23:26;;;;;;;8.77;6.65;;;;;;;24.51;47.74;95216.06;5093392;28;20080;-76
2023/07/11 07:25:53;;;;;;;9.25;6.30;;;;;;;24.71;47.27;95215.25;5110396;28;20036;-76
2023/07/11 07:28:19;;;;;;;8.18;6.50;;;;;;;24.91;46.58;95210.75;5076382;28;20497;-76
2023/07/11 07:30:49;;;;;;;10.18;6.80;;;;;;;24.52;47.05;95207.09;5110450;28;20091;-76
2023/07/11 07:33:15;;;;;;;8.95;7.15;;;;;;;24.33;47.14;95202.56;5076593;28;20039;-76
2023/07/11 07:35:41;;;;;;;8.25;7.07;;;;;;;24.79;46.45;95211.59;5093330;28;20027;-76
2023/07/11 07:38:06;;;;;;;7.28;6.53;;;;;;;24.86;46.00;95213.22;5111180;28;20051;-76
2023/07/11 07:40:31;;;;;;;7.45;6.70;;;;;;;24.93;46.48;95206.06;5076150;28;20023;-76
2023/07/11 07:42:57;;;;;;;8.50;6.85;;;;;;;25.02;46.06;95205.81;5110149;28;20035;-76
2023/07/11 07:45:22;;;;;;;9.80;6.65;;;;;;;25.33;45.87;95190.03;5093287;28;20454;-76
2023/07/11 07:47:48;;;;;;;8.15;6.47;;;;;;;25.52;45.39;95192.81;5110143;28;20089;-76
2023/07/11 07:50:13;;;;;;;8.45;7.43;;;;;;;25.31;45.71;95199.25;5110356;28;20028;-76
2023/07/11 07:52:38;;;;;;;12.73;6.97;;;;;;;25.44;45.21;95198.41;5110228;28;20288;-76
2023/07/11 07:55:04;;;;;;;11.65;7.47;;;;;;;25.35;45.63;95185.34;5110211;28;20032;-76
2023/07/11 07:57:30;;;;;;;8.45;6.72;;;;;;;25.52;44.53;95193.66;5110256;28;20027;-76
2023/07/11 07:59:55;;;;;;;8.77;7.70;;;;;;;25.47;44.82;95184.69;5092980;28;20051;-76
2023/07/11 08:02:20;;;;;;;10.27;7.35;;;;;;;25.47;45.87;95193.47;5093179;28;20028;-76
2023/07/11 08:04:48;;;;;;;11.18;7.68;;;;;;;25.57;44.82;95191.16;5110277;28;20032;-76
2023/07/11 08:07:14;;;;;;;12.55;7.63;;;;;;;25.71;44.79;95199.91;5111629;28;20046;-76
2023/07/11 08:09:39;;;;;;;9.60;7.93;;;;;;;25.60;44.23;95188.13;5092933;28;20093;-76
2023/07/11 08:12:08;;;;;;;16.38;7.85;;;;;;;25.95;43.98;95189.59;5092787;28;20031;-76
2023/07/11 08:14:37;;;;;;;8.73;7.10;;;;;;;25.92;44.44;95174.88;5110052;28;20027;-76
2023/07/11 08:17:04;;;;;;;7.68;6.78;;;;;;;26.27;44.50;95191.25;5112571;28;20031;-76
2023/07/11 08:19:29;;;;;;;13.90;7.72;;;;;;;26.26;43.10;95170.16;5079816;28;20062;-76
2023/07/11 08:21:54;;;;;;;12.77;7.13;;;;;;;26.45;43.40;95184.34;5096750;28;20473;-76
2023/07/11 08:24:20;;;;;;;9.32;7.20;;;;;;;27.00;42.60;95184.50;5096708;28;20031;-76
2023/07/11 08:26:45;;;;;;;11.65;7.78;;;;;;;27.16;41.57;95180.47;5114479;28;20039;-76
2023/07/11 08:29:12;;;;;;;11.05;6.63;;;;;;;27.24;41.84;95171.38;5113709;28;20034;-76
2023/07/11 08:31:38;;;;;;;12.45;7.38;;;;;;;27.20;41.54;95173.69;5096727;28;20028;-76
2023/07/11 08:34:03;;;;;;;15.13;7.72;;;;;;;27.00;41.67;95181.84;5113709;28;20057;-76
2023/07/11 08:36:29;;;;;;;7.55;6.70;;;;;;;27.05;42.04;95173.19;5114855;27;20484;-76
2023/07/11 08:38:54;;;;;;;10.50;6.65;;;;;;;27.22;42.17;95163.59;5114611;28;20417;-76
2023/07/11 08:41:45;;;;;;;7.85;6.95;;;;;;;27.29;41.44;95179.53;5114482;28;20404;-76
2023/07/11 08:44:18;;;;;;;9.43;7.63;;;;;;;27.31;40.27;95174.78;5096220;28;20052;-76
2023/07/11 08:47:07;;;;;;;11.02;7.45;;;;;;;27.40;40.86;95163.59;5080293;28;20023;-76
2023/07/11 08:49:36;;;;;;;12.10;7.85;;;;;;;27.79;40.29;95169.50;5091352;28;20402;-76
2023/07/11 08:52:01;;;;;;;10.32;7.95;;;;;;;27.58;40.32;95175.25;5096549;28;20103;-76
2023/07/11 08:55:01;;;;;;;11.38;7.88;;;;;;;27.81;39.67;95179.97;5079058;28;20423;-76
2023/07/11 08:57:29;;;;;;;15.15;7.75;;;;;;;27.73;40.29;95170.38;5079716;28;20066;-76
2023/07/11 09:00:12;;;;;;;11.80;7.10;;;;;;;27.99;39.59;95163.88;5112861;28;20115;-76
2023/07/11 09:03:07;;;;;;;11.98;7.43;;;;;;;27.99;40.08;95163.06;5112681;28;20039;-76
2023/07/11 09:05:39;;;;;;;13.20;7.93;;;;;;;27.80;39.81;95172.97;5095987;28;20023;-75
2023/07/11 09:08:04;;;;;;;12.95;7.53;;;;;;;27.69;40.03;95158.50;5112584;28;20043;-75
2023/07/11 09:10:40;;;;;;;9.18;7.43;;;;;;;27.75;38.78;95162.13;5112627;28;20028;-76
2023/07/11 09:13:37;;;;;;;10.07;7.07;;;;;;;27.85;39.95;95152.56;5112631;28;20032;-75
2023/07/11 09:16:17;;;;;;;9.07;7.13;;;;;;;27.80;41.09;95162.28;5112549;28;20055;-76
2023/07/11 09:19:16;;;;;;;9.57;6.95;;;;;;;27.81;39.68;95167.41;5113619;28;20118;-76
2023/07/11 09:21:44;;;;;;;7.28;5.75;;;;;;;28.04;37.48;95153.34;5113688;28;20024;-76
2023/07/11 09:24:33;;;;;;;9.52;6.00;;;;;;;28.21;37.80;95153.50;5113567;28;20120;-75
2023/07/11 09:27:09;;;;;;;7.32;5.70;;;;;;;28.30;38.49;95140.63;5111677;28;20096;-75
2023/07/11 09:29:34;;;;;;;8.55;5.63;;;;;;;28.42;37.60;95146.84;5095405;28;20027;-76
2023/07/11 09:32:02;;;;;;;7.38;5.70;;;;;;;28.50;34.91;95146.50;5095432;28;20040;-76
2023/07/11 09:34:34;;;;;;;9.07;5.10;;;;;;;28.71;36.14;95160.34;5095289;28;20035;-76
2023/07/11 09:37:05;;;;;;;6.82;4.75;;;;;;;28.87;35.83;95156.16;5095007;28;20414;-76
2023/07/11 09:40:03;;;;;;;;;;;;;;;29.00;34.79;95166.59;5095838;28;20489;-75
2023/07/11 09:42:47;;;;;;;5.25;4.68;;;;;;;29.26;35.08;95149.28;5089083;28;19916;-76
2023/07/11 09:45:14;;;;;;;6.60;5.53;;;;;;;29.02;34.87;95156.47;5095241;28;20024;-75
2023/07/11 09:47:41;;;;;;;8.52;5.00;;;;;;;29.11;34.94;95156.97;5095032;28;20039;-75
2023/07/11 09:50:22;;;;;;;5.97;4.57;;;;;;;29.32;35.11;95150.19;5111953;28;20023;-75
2023/07/11 09:52:47;;;;;;;6.07;5.00;;;;;;;29.22;34.44;95145.44;5111661;28;20035;-76
2023/07/11 09:55:28;;;;;;;9.10;4.97;;;;;;;29.47;34.29;95147.00;5094648;28;20096;-76
2023/07/11 09:57:54;;;;;;;7.43;5.18;;;;;;;29.45;34.52;95138.41;5095245;28;20035;-76
2023/07/11 10:00:28;;;;;;;5.78;5.10;;;;;;;29.32;34.00;95142.19;5111655;28;20038;-75
2023/07/11 10:02:53;;;;;;;6.78;5.05;;;;;;;29.35;33.75;95150.53;5094912;28;20027;-75
2023/07/11 10:05:22;;;;;;;8.15;5.10;;;;;;;29.30;34.33;95149.63;5111594;28;20028;-75
2023/07/11 10:08:03;;;;;;;7.43;5.10;;;;;;;29.36;34.50;95146.00;5111304;28;20039;-75
2023/07/11 10:10:29;;;;;;;6.78;5.28;;;;;;;29.58;34.16;95138.94;5112583;28;20490;-76
2023/07/11 10:12:55;;;;;;;7.97;5.47;;;;;;;29.55;34.06;95139.44;5094637;28;20074;-76
2023/07/11 10:15:20;;;;;;;6.38;5.38;;;;;;;29.56;34.01;95119.66;5094586;28;20084;-75
2023/07/11 10:17:46;;;;;;;6.32;4.95;;;;;;;29.53;34.26;95130.00;5094452;28;20398;-76
2023/07/11 10:20:18;;;;;;;6.50;5.22;;;;;;;29.53;34.51;95113.94;5112512;28;20056;-75
2023/07/11 10:22:46;;;;;;;7.50;5.05;;;;;;;29.79;34.59;95113.44;5094432;28;20024;-76
2023/07/11 10:25:16;;;;;;;6.93;5.30;;;;;;;29.65;34.91;95106.75;5094652;28;20046;-76
2023/07/11 10:27:42;;;;;;;;;;;;;;;30.04;34.19;95123.78;5112838;28;20489;-75
2023/07/11 10:30:10;;;;;;;7.47;4.87;;;;;;;29.85;34.49;95114.31;5111101;28;20007;-76
2023/07/11 10:32:42;;;;;;;5.57;4.78;;;;;;;29.94;34.33;95109.41;5094431;28;20050;-75
2023/07/11 10:35:17;;;;;;;5.22;4.38;;;;;;;30.02;34.10;95125.88;5094611;28;20560;-76
2023/07/11 10:37:45;;;;;;;6.95;5.25;;;;;;;29.97;33.47;95120.41;5077219;28;20035;-76
2023/07/11 10:40:24;;;;;;;8.95;4.90;;;;;;;29.91;34.19;95118.72;5093183;28;20501;-76
2023/07/11 10:43:07;;;;;;;7.40;5.20;;;;;;;29.96;34.20;95124.16;5110984;28;20118;-76
2023/07/11 10:45:39;;;;;;;6.18;5.18;;;;;;;30.15;34.46;95122.09;5110717;28;20031;-75
2023/07/11 10:48:26;;;;;;;6.45;5.30;;;;;;;30.21;34.12;95115.75;5110627;28;20096;-75
2023/07/11 10:51:02;;;;;;;7.35;5.07;;;;;;;30.26;34.55;95123.09;5111894;28;20069;-76
2023/07/11 10:53:36;;;;;;;6.38;5.00;;;;;;;30.45;34.34;95104.91;5110767;28;20034;-76
2023/07/11 10:56:05;;;;;;;5.68;5.07;;;;;;;30.37;33.76;95110.66;5093699;28;20066;-76
2023/07/11 10:58:30;;;;;;;6.28;4.90;;;;;;;30.40;33.69;95102.97;5093425;28;20092;-76
2023/07/11 11:01:09;;;;;;;9.68;5.10;;;;;;;30.54;33.78;95103.44;5076394;28;20024;-76
2023/07/11 11:03:37;;;;;;;6.88;4.68;;;;;;;30.59;34.12;95100.84;5111737;28;20019;-75
2023/07/11 11:06:31;;;;;;;6.82;4.90;;;;;;;30.50;33.02;95103.09;5110319;28;20054;-76
2023/07/11 11:09:14;;;;;;;8.93;4.82;;;;;;;30.39;34.25;95100.53;5110326;28;20447;-76
2023/07/11 11:11:58;;;;;;;7.43;5.05;;;;;;;30.25;34.31;95100.84;5111787;28;20108;-76
2023/07/11 11:14:49;;;;;;;7.38;5.03;;;;;;;30.38;33.35;95094.34;5110225;28;20489;-76
2023/07/11 11:17:19;;;;;;;5.40;4.70;;;;;;;30.41;34.01;95101.91;5111748;28;20477;-76
2023/07/11 11:20:06;;;;;;;5.53;5.00;;;;;;;30.54;33.93;95098.09;5111523;28;20754;-76
2023/07/11 11:22:53;;;;;;;5.80;5.10;;;;;;;30.51;34.67;95093.22;5111302;28;20027;-76
2023/07/11 11:25:25;;;;;;;6.60;4.80;;;;;;;30.53;34.23;95080.38;5077278;28;20056;-76
2023/07/11 11:28:09;;;;;;;7.13;5.05;;;;;;;30.52;33.53;95089.47;5093099;28;20267;-76
2023/07/11 11:30:46;;;;;;;5.15;4.65;;;;;;;30.64;34.60;95090.19;5111510;28;20485;-76
2023/07/11 11:33:34;;;;;;;5.43;4.85;;;;;;;30.97;32.63;95075.13;5110128;28;20036;-76
2023/07/11 11:36:29;;;;;;;5.78;4.80;;;;;;;30.60;33.38;95059.59;5110101;28;20649;-75
2023/07/11 11:39:09;;;;;;;5.30;4.78;;;;;;;30.22;34.75;95069.19;5094350;28;20047;-76